Time;durP1;ratioP1;P1;durP2;ratioP2;P2;SDS_P1;SDS_P2;PMS_P1;PMS_P2;Temp;Humidity;BMP_temperature;BMP_pressure;BME280_temperature;BME280_humidity;BME280_pressure;Samples;Min_cycle;Max_cycle;Signal;HPM_P1;HPM_P2
2024/03/21 00:01:49;;;;;;;12.90;8.67;;;;;;;;;;5055802;28;20408;-89
2024/03/21 00:04:14;;;;;;;9.00;7.00;;;;;;;;;;5061810;28;20790;-89
2024/03/21 00:06:40;;;;;;;12.23;7.43;;;;;;;;;;5058299;28;20451;-85
2024/03/21 00:09:09;;;;;;;8.13;6.20;;;;;;;;;;5048018;28;20436;-89
2024/03/21 00:11:35;;;;;;;9.18;6.30;;;;;;;;;;5067763;28;20432;-90
2024/03/21 00:14:01;;;;;;;7.50;5.60;;;;;;;;;;5045617;28;20184;-88
2024/03/21 00:16:27;;;;;;;6.50;5.60;;;;;;;;;;5051428;28;20182;-91
2024/03/21 00:18:53;;;;;;;13.70;8.37;;;;;;;;;;5039602;28;20427;-90
2024/03/21 00:21:20;;;;;;;11.33;7.37;;;;;;;;;;5060148;28;20987;-91
2024/03/21 00:23:45;;;;;;;9.95;7.38;;;;;;;;;;5062769;28;20896;-88
2024/03/21 00:26:12;;;;;;;14.17;8.20;;;;;;;;;;5052490;28;20185;-88
2024/03/21 00:28:39;;;;;;;9.88;8.25;;;;;;;;;;5065052;28;20442;-89
2024/03/21 00:31:05;;;;;;;12.48;9.10;;;;;;;;;;5044298;28;20193;-89
2024/03/21 00:33:31;;;;;;;13.60;8.82;;;;;;;;;;5052872;28;20548;-90
2024/03/21 00:35:57;;;;;;;9.60;8.60;;;;;;;;;;5058681;28;20185;-90
2024/03/21 00:38:23;;;;;;;10.48;8.48;;;;;;;;;;5045797;28;20420;-87
2024/03/21 00:40:49;;;;;;;10.40;8.97;;;;;;;;;;5063664;28;20209;-86
2024/03/21 00:43:15;;;;;;;14.43;8.07;;;;;;;;;;5041360;28;20452;-90
2024/03/21 00:45:41;;;;;;;15.53;8.30;;;;;;;;;;5046634;28;20484;-88
2024/03/21 00:48:07;;;;;;;11.17;8.50;;;;;;;;;;5044366;28;20462;-89
2024/03/21 00:50:33;;;;;;;14.38;9.43;;;;;;;;;;5041757;28;20547;-88
2024/03/21 00:53:02;;;;;;;12.63;9.33;;;;;;;;;;5047892;28;20271;-89
2024/03/21 00:55:28;;;;;;;17.83;9.85;;;;;;;;;;5041811;28;20520;-84
2024/03/21 00:57:54;;;;;;;12.57;9.80;;;;;;;;;;5058348;28;20224;-89
2024/03/21 01:00:21;;;;;;;14.47;10.50;;;;;;;;;;5044171;28;20471;-88
2024/03/21 01:02:47;;;;;;;14.80;10.68;;;;;;;;;;5062760;28;20426;-89
2024/03/21 01:05:14;;;;;;;17.33;10.17;;;;;;;;;;5056090;28;20187;-89
2024/03/21 01:07:40;;;;;;;18.85;11.82;;;;;;;;;;5049739;28;20442;-90
2024/03/21 01:10:09;;;;;;;16.83;11.13;;;;;;;;;;5043999;28;20189;-89
2024/03/21 01:12:35;;;;;;;16.60;11.48;;;;;;;;;;5045428;28;20437;-88
2024/03/21 01:15:01;;;;;;;13.40;10.80;;;;;;;;;;5065169;28;20284;-90
2024/03/21 01:17:27;;;;;;;15.30;10.80;;;;;;;;;;5046845;28;20440;-91
2024/03/21 01:19:53;;;;;;;14.02;11.32;;;;;;;;;;5064808;28;20965;-90
2024/03/21 01:22:19;;;;;;;15.20;11.00;;;;;;;;;;5039098;28;20190;-90
2024/03/21 01:24:48;;;;;;;15.60;11.30;;;;;;;;;;5067560;28;20467;-90
2024/03/21 01:27:15;;;;;;;18.77;12.18;;;;;;;;;;5050735;28;20486;-87
2024/03/21 01:29:41;;;;;;;15.90;12.13;;;;;;;;;;5045570;28;20562;-88
2024/03/21 01:32:07;;;;;;;18.60;11.70;;;;;;;;;;5062730;28;20240;-86
2024/03/21 01:34:33;;;;;;;16.05;12.75;;;;;;;;;;5064619;28;20186;-89
2024/03/21 01:36:59;;;;;;;18.25;10.98;;;;;;;;;;5046796;28;20680;-90
2024/03/21 01:39:27;;;;;;;18.33;12.40;;;;;;;;;;5060562;28;20182;-90
2024/03/21 01:41:53;;;;;;;13.65;11.45;;;;;;;;;;5050745;28;20434;-90
2024/03/21 01:44:22;;;;;;;13.97;11.20;;;;;;;;;;5061211;28;20185;-90
2024/03/21 01:46:48;;;;;;;16.58;11.15;;;;;;;;;;5058148;28;20491;-88
2024/03/21 01:49:15;;;;;;;17.33;12.98;;;;;;;;;;5049917;28;20182;-86
2024/03/21 01:51:41;;;;;;;17.65;11.75;;;;;;;;;;5049617;28;20626;-90
2024/03/21 01:54:10;;;;;;;17.92;11.82;;;;;;;;;;5046995;28;20264;-89
2024/03/21 01:56:37;;;;;;;17.88;12.10;;;;;;;;;;5045713;28;20552;-89
2024/03/21 01:59:07;;;;;;;15.02;11.75;;;;;;;;;;5043521;28;20609;-90
2024/03/21 02:01:33;;;;;;;18.88;10.65;;;;;;;;;;5045793;28;20220;-89
2024/03/21 02:04:03;;;;;;;20.15;11.55;;;;;;;;;;5056031;28;20582;-90
2024/03/21 02:06:30;;;;;;;18.63;14.02;;;;;;;;;;5066573;28;20180;-90
2024/03/21 02:08:58;;;;;;;19.45;12.10;;;;;;;;;;5047136;28;20225;-89
2024/03/21 02:11:24;;;;;;;20.20;12.02;;;;;;;;;;5052001;28;20177;-89
2024/03/21 02:13:52;;;;;;;17.63;11.67;;;;;;;;;;5045139;28;20534;-89
2024/03/21 02:16:18;;;;;;;18.85;11.77;;;;;;;;;;5048923;28;20452;-89
2024/03/21 02:18:44;;;;;;;16.42;12.10;;;;;;;;;;5058423;28;20186;-89
2024/03/21 02:23:55;;;;;;;16.75;12.55;;;;;;;;;;5061362;28;20501;-90
2024/03/21 02:26:21;;;;;;;20.92;11.63;;;;;;;;;;5064998;28;20529;-90
2024/03/21 02:28:50;;;;;;;19.48;11.25;;;;;;;;;;5035044;28;20193;-85
2024/03/21 02:31:18;;;;;;;16.67;12.15;;;;;;;;;;5058243;28;20186;-89
2024/03/21 02:33:44;;;;;;;19.63;11.57;;;;;;;;;;5058555;28;20584;-90
2024/03/21 02:36:10;;;;;;;22.30;12.43;;;;;;;;;;5042383;28;20192;-89
2024/03/21 02:38:36;;;;;;;13.27;10.55;;;;;;;;;;5045488;28;20497;-89
2024/03/21 02:41:02;;;;;;;12.85;11.05;;;;;;;;;;5045664;28;20259;-89
2024/03/21 02:43:28;;;;;;;17.43;12.20;;;;;;;;;;5059710;28;20174;-90
2024/03/21 02:45:54;;;;;;;18.30;12.97;;;;;;;;;;5047978;28;20425;-89
2024/03/21 02:48:20;;;;;;;15.90;10.80;;;;;;;;;;5058395;28;20429;-90
2024/03/21 02:50:46;;;;;;;19.23;14.23;;;;;;;;;;5060565;28;20408;-88
2024/03/21 02:53:12;;;;;;;22.77;12.50;;;;;;;;;;5041248;28;20791;-90
2024/03/21 02:55:37;;;;;;;25.77;13.33;;;;;;;;;;5049237;28;20327;-90
2024/03/21 02:58:03;;;;;;;26.17;15.20;;;;;;;;;;5045440;28;20442;-90
2024/03/21 03:00:29;;;;;;;26.60;15.30;;;;;;;;;;5042370;28;20551;-90
2024/03/21 03:02:55;;;;;;;21.77;15.10;;;;;;;;;;5044467;28;20447;-89
2024/03/21 03:05:21;;;;;;;25.35;15.63;;;;;;;;;;5064782;28;20500;-90
2024/03/21 03:07:47;;;;;;;24.17;16.63;;;;;;;;;;5060340;28;20193;-89
2024/03/21 03:10:15;;;;;;;22.93;17.97;;;;;;;;;;5044529;28;20528;-90
2024/03/21 03:12:41;;;;;;;31.75;19.40;;;;;;;;;;5044503;28;20448;-89
2024/03/21 03:15:07;;;;;;;26.23;17.67;;;;;;;;;;5043384;28;20593;-89
2024/03/21 03:17:33;;;;;;;28.98;18.75;;;;;;;;;;5061897;28;20453;-90
2024/03/21 03:19:59;;;;;;;26.77;19.10;;;;;;;;;;5044665;28;20218;-90
2024/03/21 03:22:24;;;;;;;31.43;21.67;;;;;;;;;;5055606;28;20520;-90
2024/03/21 03:24:50;;;;;;;29.93;22.33;;;;;;;;;;5050265;28;20440;-90
2024/03/21 03:27:16;;;;;;;35.23;22.07;;;;;;;;;;5050856;28;20415;-89
2024/03/21 03:29:42;;;;;;;29.33;23.70;;;;;;;;;;5062972;28;20908;-90
2024/03/21 03:32:09;;;;;;;38.13;25.00;;;;;;;;;;5040041;28;20901;-90
2024/03/21 03:37:19;;;;;;;36.10;25.73;;;;;;;;;;5051494;28;20180;-89
2024/03/21 03:39:45;;;;;;;34.20;25.30;;;;;;;;;;5050638;28;20213;-89
2024/03/21 03:42:11;;;;;;;42.13;27.03;;;;;;;;;;5063473;28;20595;-89
2024/03/21 03:44:37;;;;;;;32.70;26.57;;;;;;;;;;5048454;28;20424;-90
2024/03/21 03:47:03;;;;;;;36.70;27.00;;;;;;;;;;5052839;28;20482;-86
2024/03/21 03:49:29;;;;;;;38.30;27.80;;;;;;;;;;5068216;28;20416;-90
2024/03/21 03:51:55;;;;;;;38.60;28.43;;;;;;;;;;5048248;28;20185;-90
2024/03/21 03:54:21;;;;;;;39.08;28.27;;;;;;;;;;5068920;28;20507;-89
2024/03/21 03:56:47;;;;;;;38.35;29.13;;;;;;;;;;5064516;28;20182;-90
2024/03/21 03:59:13;;;;;;;45.73;34.27;;;;;;;;;;5063964;28;20715;-90
2024/03/21 04:01:41;;;;;;;40.03;31.30;;;;;;;;;;5043674;28;20498;-90
2024/03/21 04:04:07;;;;;;;50.72;36.33;;;;;;;;;;5067671;28;20420;-90
2024/03/21 04:06:33;;;;;;;54.07;37.40;;;;;;;;;;5048752;28;20190;-90
2024/03/21 04:08:59;;;;;;;53.80;38.47;;;;;;;;;;5059201;28;20433;-90
2024/03/21 04:11:25;;;;;;;56.42;39.03;;;;;;;;;;5065831;28;20479;-89
2024/03/21 04:13:51;;;;;;;58.25;38.60;;;;;;;;;;5056442;28;20178;-90
2024/03/21 04:16:18;;;;;;;58.30;39.93;;;;;;;;;;5049419;28;20617;-90
2024/03/21 04:18:44;;;;;;;51.72;37.17;;;;;;;;;;5066784;28;20919;-89
2024/03/21 04:21:11;;;;;;;52.58;36.08;;;;;;;;;;5045651;28;20202;-89
2024/03/21 04:23:37;;;;;;;62.22;37.45;;;;;;;;;;5069223;28;20282;-89
2024/03/21 04:26:04;;;;;;;57.90;40.10;;;;;;;;;;5042574;28;20186;-90
2024/03/21 04:28:29;;;;;;;58.05;37.53;;;;;;;;;;5048341;28;20248;-89
2024/03/21 04:30:55;;;;;;;59.50;40.07;;;;;;;;;;5071923;28;20641;-89
2024/03/21 04:33:21;;;;;;;61.03;40.83;;;;;;;;;;5064557;28;20420;-86
2024/03/21 04:35:49;;;;;;;63.25;43.95;;;;;;;;;;5065494;28;20441;-89
2024/03/21 04:38:15;;;;;;;66.95;45.33;;;;;;;;;;5063121;28;20196;-88
2024/03/21 04:40:41;;;;;;;60.00;43.20;;;;;;;;;;5044541;28;20545;-90
2024/03/21 04:43:07;;;;;;;62.22;44.30;;;;;;;;;;5069405;28;20428;-90
2024/03/21 04:45:33;;;;;;;65.05;43.00;;;;;;;;;;5052005;28;20594;-88
2024/03/21 04:47:59;;;;;;;56.55;41.83;;;;;;;;;;5046831;28;20366;-90
2024/03/21 04:50:25;;;;;;;61.03;43.95;;;;;;;;;;5049519;28;20335;-87
2024/03/21 04:52:51;;;;;;;62.90;44.87;;;;;;;;;;5059484;28;20222;-90
2024/03/21 04:55:17;;;;;;;65.17;44.03;;;;;;;;;;5067324;28;20959;-88
2024/03/21 04:57:43;;;;;;;78.53;44.70;;;;;;;;;;5045782;28;20432;-90
2024/03/21 05:00:13;;;;;;;71.53;49.57;;;;;;;;;;5061555;28;20582;-90
2024/03/21 05:02:39;;;;;;;60.80;44.30;;;;;;;;;;5061204;28;20436;-90
2024/03/21 05:05:05;;;;;;;70.32;48.05;;;;;;;;;;5063733;28;20264;-90
2024/03/21 05:07:31;;;;;;;67.73;44.30;;;;;;;;;;5068928;28;20189;-90
2024/03/21 05:09:57;;;;;;;74.93;44.80;;;;;;;;;;5064930;28;20450;-89
2024/03/21 05:12:23;;;;;;;71.03;46.13;;;;;;;;;;5043958;28;20193;-90
2024/03/21 05:14:49;;;;;;;67.70;42.90;;;;;;;;;;5048546;28;20185;-90
2024/03/21 05:17:17;;;;;;;74.73;46.10;;;;;;;;;;5044519;28;20536;-89
2024/03/21 05:19:43;;;;;;;74.90;47.78;;;;;;;;;;5043150;28;20431;-90
2024/03/21 05:22:09;;;;;;;74.93;48.42;;;;;;;;;;5055826;28;20549;-89
2024/03/21 05:24:35;;;;;;;72.05;45.75;;;;;;;;;;5058854;28;20587;-90
2024/03/21 05:27:02;;;;;;;77.72;47.40;;;;;;;;;;5063127;28;20182;-90
2024/03/21 05:29:29;;;;;;;79.07;48.88;;;;;;;;;;5064907;28;20174;-89
2024/03/21 05:31:55;;;;;;;72.95;44.45;;;;;;;;;;5066068;28;20228;-90
2024/03/21 05:34:21;;;;;;;67.25;43.53;;;;;;;;;;5062960;28;20270;-89
2024/03/21 05:36:47;;;;;;;70.18;44.55;;;;;;;;;;5044507;28;20186;-90
2024/03/21 05:39:13;;;;;;;72.93;47.03;;;;;;;;;;5064927;28;20185;-89
2024/03/21 05:41:39;;;;;;;70.37;44.33;;;;;;;;;;5063548;28;20506;-90
2024/03/21 05:44:05;;;;;;;76.57;46.70;;;;;;;;;;5048502;28;20429;-88
2024/03/21 05:46:31;;;;;;;77.67;46.40;;;;;;;;;;5046820;28;20924;-90
2024/03/21 05:48:58;;;;;;;75.78;45.75;;;;;;;;;;5049214;28;20975;-89
2024/03/21 05:51:24;;;;;;;77.22;46.67;;;;;;;;;;5043833;28;20182;-88
2024/03/21 05:53:50;;;;;;;72.43;48.08;;;;;;;;;;5042995;28;20253;-90
2024/03/21 05:56:16;;;;;;;79.85;49.85;;;;;;;;;;5066989;28;20178;-89
2024/03/21 05:58:43;;;;;;;73.10;47.80;;;;;;;;;;5046826;28;20186;-89
2024/03/21 06:03:39;;;;;;;79.60;48.00;;;;;;;;;;5045811;28;20708;-90
2024/03/21 06:06:05;;;;;;;72.33;45.37;;;;;;;;;;5063006;28;20212;-89
2024/03/21 06:08:31;;;;;;;74.10;47.40;;;;;;;;;;5045677;28;20754;-89
2024/03/21 06:10:57;;;;;;;72.50;47.27;;;;;;;;;;5064813;28;20474;-90
2024/03/21 06:13:23;;;;;;;71.10;48.23;;;;;;;;;;5058577;28;20524;-89
2024/03/21 06:15:49;;;;;;;80.82;48.97;;;;;;;;;;5062644;28;20802;-90
2024/03/21 06:18:15;;;;;;;80.45;46.50;;;;;;;;;;5061676;28;20240;-90
2024/03/21 06:20:41;;;;;;;76.57;49.10;;;;;;;;;;5062429;28;20209;-91
2024/03/21 06:23:07;;;;;;;86.95;49.20;;;;;;;;;;5041261;28;20658;-91
2024/03/21 06:25:33;;;;;;;68.13;45.30;;;;;;;;;;5046618;28;20177;-89
2024/03/21 06:28:01;;;;;;;78.80;47.20;;;;;;;;;;5066427;28;20710;-90
2024/03/21 06:30:27;;;;;;;72.68;45.75;;;;;;;;;;5050751;28;20440;-89
2024/03/21 06:32:53;;;;;;;73.63;47.67;;;;;;;;;;5048119;28;20174;-89
2024/03/21 06:35:19;;;;;;;71.15;46.28;;;;;;;;;;5039852;28;20409;-90
2024/03/21 06:37:45;;;;;;;71.38;46.15;;;;;;;;;;5059116;28;20602;-90
2024/03/21 06:40:11;;;;;;;69.30;44.27;;;;;;;;;;5043907;28;20280;-90
2024/03/21 06:42:37;;;;;;;74.63;47.22;;;;;;;;;;5047322;28;20438;-90
2024/03/21 06:45:04;;;;;;;68.82;45.58;;;;;;;;;;5064751;28;20188;-88
2024/03/21 06:47:30;;;;;;;68.75;43.63;;;;;;;;;;5062639;28;20238;-87
2024/03/21 06:49:57;;;;;;;75.33;46.77;;;;;;;;;;5047896;28;20190;-89
2024/03/21 06:52:23;;;;;;;67.20;44.95;;;;;;;;;;5060853;28;20948;-88
2024/03/21 06:54:49;;;;;;;77.60;46.22;;;;;;;;;;5053673;28;20185;-89
2024/03/21 06:57:15;;;;;;;65.75;43.50;;;;;;;;;;5065716;28;20221;-89
2024/03/21 06:59:41;;;;;;;68.65;40.40;;;;;;;;;;5063057;28;20182;-89
2024/03/21 07:02:08;;;;;;;61.60;41.95;;;;;;;;;;5049350;28;20200;-89
2024/03/21 07:04:34;;;;;;;64.47;39.97;;;;;;;;;;5051352;28;20304;-88
2024/03/21 07:07:00;;;;;;;62.08;41.15;;;;;;;;;;5067965;28;20189;-86
2024/03/21 07:09:26;;;;;;;61.07;41.60;;;;;;;;;;5070608;28;20185;-83
2024/03/21 07:11:52;;;;;;;58.77;39.67;;;;;;;;;;5049361;28;20430;-83
2024/03/21 07:14:18;;;;;;;59.53;37.77;;;;;;;;;;5064077;28;20421;-84
2024/03/21 07:16:44;;;;;;;63.50;41.50;;;;;;;;;;5069259;28;20605;-83
2024/03/21 07:19:10;;;;;;;57.50;39.10;;;;;;;;;;5064255;28;20428;-82
2024/03/21 07:21:36;;;;;;;59.80;36.47;;;;;;;;;;5064864;28;20259;-85
2024/03/21 07:24:02;;;;;;;55.73;36.10;;;;;;;;;;5060603;28;20189;-89
2024/03/21 07:26:29;;;;;;;49.10;38.13;;;;;;;;;;5046653;28;20509;-83
2024/03/21 07:28:55;;;;;;;49.10;34.87;;;;;;;;;;5055142;28;20442;-81
2024/03/21 07:31:21;;;;;;;54.42;37.10;;;;;;;;;;5048128;28;20479;-81
2024/03/21 07:33:51;;;;;;;54.77;35.20;;;;;;;;;;5047940;28;20198;-81
2024/03/21 07:36:18;;;;;;;47.83;30.50;;;;;;;;;;5048696;28;20434;-81
2024/03/21 07:38:44;;;;;;;46.03;31.67;;;;;;;;;;5057429;28;20405;-80
2024/03/21 07:41:10;;;;;;;51.30;35.37;;;;;;;;;;5050947;28;20457;-81
2024/03/21 07:43:36;;;;;;;46.53;31.37;;;;;;;;;;5056333;28;20435;-82
2024/03/21 07:46:02;;;;;;;46.72;33.30;;;;;;;;;;5052583;28;20470;-82
2024/03/21 07:48:28;;;;;;;50.03;32.23;;;;;;;;;;5045067;28;20182;-81
2024/03/21 07:50:54;;;;;;;47.50;31.70;;;;;;;;;;5052110;28;20455;-81
2024/03/21 07:53:20;;;;;;;51.70;34.90;;;;;;;;;;5052213;28;20962;-81
2024/03/21 07:55:46;;;;;;;54.73;34.03;;;;;;;;;;5050440;28;20436;-81
2024/03/21 07:58:12;;;;;;;50.42;33.47;;;;;;;;;;5058969;28;20960;-81
2024/03/21 08:00:38;;;;;;;53.85;36.10;;;;;;;;;;5070117;28;20228;-81
2024/03/21 08:03:04;;;;;;;49.67;32.37;;;;;;;;;;5052555;28;20181;-80
2024/03/21 08:05:30;;;;;;;57.90;36.20;;;;;;;;;;5063033;28;20444;-81
2024/03/21 08:07:57;;;;;;;50.15;36.88;;;;;;;;;;5048048;28;20420;-81
2024/03/21 08:10:23;;;;;;;53.73;35.47;;;;;;;;;;5053566;28;20181;-81
2024/03/21 08:12:49;;;;;;;47.20;33.67;;;;;;;;;;5052277;28;20515;-81
2024/03/21 08:15:15;;;;;;;54.55;34.55;;;;;;;;;;5049706;28;20412;-80
2024/03/21 08:17:41;;;;;;;48.50;32.88;;;;;;;;;;5051618;28;20598;-80
2024/03/21 08:20:08;;;;;;;51.73;34.83;;;;;;;;;;5051456;28;20205;-81
2024/03/21 08:22:34;;;;;;;44.77;32.20;;;;;;;;;;5052840;28;20526;-80
2024/03/21 08:25:00;;;;;;;48.53;31.57;;;;;;;;;;5049372;28;20404;-82
2024/03/21 08:27:27;;;;;;;46.53;29.37;;;;;;;;;;5048276;28;20574;-82
2024/03/21 08:29:54;;;;;;;44.40;30.35;;;;;;;;;;5065150;28;20432;-81
2024/03/21 08:32:23;;;;;;;42.70;32.15;;;;;;;;;;5063546;28;20181;-81
2024/03/21 08:34:50;;;;;;;51.67;33.35;;;;;;;;;;5055657;28;20181;-81
2024/03/21 08:37:16;;;;;;;45.70;32.17;;;;;;;;;;5050351;28;20185;-81
2024/03/21 08:39:42;;;;;;;46.63;30.07;;;;;;;;;;5047511;28;20188;-81
2024/03/21 08:42:08;;;;;;;48.17;32.70;;;;;;;;;;5050337;28;20581;-80
2024/03/21 08:44:34;;;;;;;46.50;30.17;;;;;;;;;;5050735;28;20190;-80
2024/03/21 08:47:00;;;;;;;44.63;30.70;;;;;;;;;;5053319;28;20478;-80
2024/03/21 08:49:26;;;;;;;39.07;28.70;;;;;;;;;;5044627;28;20638;-80
2024/03/21 08:51:53;;;;;;;47.20;30.93;;;;;;;;;;5060980;28;20437;-80
2024/03/21 08:54:20;;;;;;;45.63;30.23;;;;;;;;;;5061864;28;20408;-81
2024/03/21 08:56:46;;;;;;;41.93;30.13;;;;;;;;;;5053828;28;20487;-81
2024/03/21 08:59:12;;;;;;;48.20;27.30;;;;;;;;;;5058765;28;20417;-81
2024/03/21 09:01:38;;;;;;;44.53;30.10;;;;;;;;;;5058171;28;20506;-80
2024/03/21 09:04:04;;;;;;;44.37;27.60;;;;;;;;;;5050444;28;20416;-81
2024/03/21 09:06:31;;;;;;;41.70;29.27;;;;;;;;;;5070693;28;20970;-80
2024/03/21 09:08:57;;;;;;;34.50;21.20;;;;;;;;;;5050463;28;20428;-80
2024/03/21 09:11:23;;;;;;;27.57;18.13;;;;;;;;;;5051718;28;20885;-82
2024/03/21 09:13:49;;;;;;;37.33;23.57;;;;;;;;;;5049435;28;20428;-81
2024/03/21 09:16:15;;;;;;;30.90;21.73;;;;;;;;;;5067312;28;20445;-80
2024/03/21 09:18:43;;;;;;;29.93;19.87;;;;;;;;;;5067734;28;20503;-80
2024/03/21 09:21:12;;;;;;;30.50;22.53;;;;;;;;;;5068496;28;20468;-80
2024/03/21 09:23:39;;;;;;;28.27;20.33;;;;;;;;;;5046985;28;20503;-80
2024/03/21 09:26:05;;;;;;;27.00;18.58;;;;;;;;;;5045803;28;20796;-80
2024/03/21 09:28:31;;;;;;;31.07;21.40;;;;;;;;;;5046435;28;20177;-81
2024/03/21 09:30:58;;;;;;;29.27;19.53;;;;;;;;;;5051290;28;20777;-81
2024/03/21 09:33:24;;;;;;;26.33;18.65;;;;;;;;;;5047550;28;20464;-80
2024/03/21 09:35:57;;;;;;;26.90;18.00;;;;;;;;;;5051353;28;20189;-80
2024/03/21 09:38:22;;;;;;;27.90;15.80;;;;;;;;;;5047632;28;20443;-83
2024/03/21 09:40:49;;;;;;;22.37;16.73;;;;;;;;;;5064261;28;20499;-79
2024/03/21 09:43:15;;;;;;;22.60;16.17;;;;;;;;;;5044712;28;20943;-79
2024/03/21 09:45:44;;;;;;;25.87;18.03;;;;;;;;;;5043651;28;20416;-79
2024/03/21 09:48:10;;;;;;;24.67;15.93;;;;;;;;;;5064053;28;20507;-80
2024/03/21 09:50:36;;;;;;;23.00;16.60;;;;;;;;;;5066921;28;20464;-80
2024/03/21 09:53:02;;;;;;;20.30;16.20;;;;;;;;;;5052483;28;20489;-81
2024/03/21 09:55:28;;;;;;;22.33;16.67;;;;;;;;;;5068311;28;20427;-81
2024/03/21 09:57:54;;;;;;;24.33;18.37;;;;;;;;;;5052032;28;20443;-80
2024/03/21 10:00:20;;;;;;;23.33;17.67;;;;;;;;;;5049805;28;20499;-80
2024/03/21 10:02:46;;;;;;;22.43;15.27;;;;;;;;;;5044572;28;20519;-81
2024/03/21 10:05:25;;;;;;;23.40;17.50;;;;;;;;;;5051207;28;20503;-80
2024/03/21 10:07:51;;;;;;;20.37;14.67;;;;;;;;;;5048704;28;20413;-80
2024/03/21 10:10:17;;;;;;;20.20;13.93;;;;;;;;;;5060999;28;20420;-81
2024/03/21 10:12:43;;;;;;;20.47;15.50;;;;;;;;;;5048529;28;20458;-82
2024/03/21 10:15:12;;;;;;;21.50;14.80;;;;;;;;;;5051688;28;20795;-82
2024/03/21 10:17:38;;;;;;;20.17;15.60;;;;;;;;;;5047119;28;20425;-81
2024/03/21 10:20:04;;;;;;;20.57;15.53;;;;;;;;;;5042809;28;20983;-82
2024/03/21 10:22:30;;;;;;;29.67;15.60;;;;;;;;;;5065324;28;20444;-82
2024/03/21 10:24:57;;;;;;;25.03;16.00;;;;;;;;;;5046480;28;20557;-82
2024/03/21 10:27:23;;;;;;;24.30;16.77;;;;;;;;;;5046595;28;20788;-80
2024/03/21 10:29:50;;;;;;;24.40;16.70;;;;;;;;;;5045433;28;20920;-81
2024/03/21 10:32:17;;;;;;;27.70;17.30;;;;;;;;;;5045511;28;20425;-81
2024/03/21 10:34:48;;;;;;;23.37;15.47;;;;;;;;;;5059742;28;20433;-80
2024/03/21 10:37:14;;;;;;;22.30;16.60;;;;;;;;;;5057911;28;20986;-81
2024/03/21 10:39:40;;;;;;;20.73;16.70;;;;;;;;;;5050045;28;20439;-80
2024/03/21 10:42:07;;;;;;;21.33;16.00;;;;;;;;;;5048499;28;20444;-80
2024/03/21 10:44:33;;;;;;;22.27;13.90;;;;;;;;;;5045783;28;20599;-81
2024/03/21 10:46:59;;;;;;;20.27;12.70;;;;;;;;;;5048585;28;20519;-80
2024/03/21 10:49:26;;;;;;;21.90;14.80;;;;;;;;;;5047339;28;20428;-80
2024/03/21 10:51:52;;;;;;;21.17;14.60;;;;;;;;;;5042991;28;20463;-80
2024/03/21 10:54:19;;;;;;;21.00;15.87;;;;;;;;;;5063512;28;20431;-80
2024/03/21 10:56:47;;;;;;;19.57;15.00;;;;;;;;;;5050306;28;20432;-81
2024/03/21 10:59:16;;;;;;;22.33;15.90;;;;;;;;;;5062038;28;20432;-81
2024/03/21 11:01:44;;;;;;;20.70;14.37;;;;;;;;;;5048884;28;20829;-82
2024/03/21 11:04:11;;;;;;;18.93;13.30;;;;;;;;;;5043215;28;20409;-81
2024/03/21 11:06:38;;;;;;;22.73;14.80;;;;;;;;;;5041668;28;20428;-80
2024/03/21 11:09:07;;;;;;;22.53;15.30;;;;;;;;;;5052440;28;20432;-82
2024/03/21 11:11:34;;;;;;;18.60;13.60;;;;;;;;;;5062442;28;20856;-79
2024/03/21 11:14:03;;;;;;;22.43;14.90;;;;;;;;;;5043377;28;20412;-82
2024/03/21 11:16:29;;;;;;;18.23;14.37;;;;;;;;;;5051236;28;20439;-82
2024/03/21 11:18:56;;;;;;;21.60;15.17;;;;;;;;;;5051394;28;20803;-81
2024/03/21 11:21:22;;;;;;;20.20;14.30;;;;;;;;;;5047433;28;20562;-82
2024/03/21 11:23:48;;;;;;;19.90;14.00;;;;;;;;;;5052624;28;20436;-82
2024/03/21 11:26:16;;;;;;;18.53;14.50;;;;;;;;;;5042696;28;20413;-81
2024/03/21 11:28:42;;;;;;;21.33;14.00;;;;;;;;;;5048043;28;20407;-82
2024/03/21 11:31:18;;;;;;;17.67;12.70;;;;;;;;;;5052799;28;20430;-81
2024/03/21 11:33:44;;;;;;;17.80;13.40;;;;;;;;;;5050324;28;20439;-82
2024/03/21 11:36:10;;;;;;;17.53;13.20;;;;;;;;;;5051879;28;20834;-82
2024/03/21 11:38:36;;;;;;;15.17;12.70;;;;;;;;;;5054198;28;20408;-83
2024/03/21 11:41:04;;;;;;;16.00;12.67;;;;;;;;;;5048820;28;20461;-83
2024/03/21 11:43:30;;;;;;;15.27;12.87;;;;;;;;;;5071701;28;20431;-82
2024/03/21 11:45:58;;;;;;;14.03;11.57;;;;;;;;;;5053131;28;20957;-82
2024/03/21 11:48:27;;;;;;;15.70;12.30;;;;;;;;;;5061973;28;20468;-82
2024/03/21 11:50:54;;;;;;;13.63;10.33;;;;;;;;;;5062230;28;20478;-83
2024/03/21 11:53:20;;;;;;;14.27;12.00;;;;;;;;;;5046011;28;20428;-82
2024/03/21 11:55:48;;;;;;;13.17;10.67;;;;;;;;;;5072663;28;20432;-82
2024/03/21 11:58:14;;;;;;;14.00;11.20;;;;;;;;;;5054080;28;20926;-82
2024/03/21 12:00:40;;;;;;;15.17;10.37;;;;;;;;;;5047470;28;20438;-81
2024/03/21 12:03:08;;;;;;;12.70;10.80;;;;;;;;;;5059758;28;21086;-82
2024/03/21 12:05:36;;;;;;;13.30;9.70;;;;;;;;;;5049659;28;20919;-82
2024/03/21 12:08:02;;;;;;;10.70;8.30;;;;;;;;;;5042370;28;20456;-81
2024/03/21 12:10:28;;;;;;;8.80;7.90;;;;;;;;;;5057019;28;20879;-83
2024/03/21 12:12:54;;;;;;;10.80;9.10;;;;;;;;;;5051668;28;20464;-82
2024/03/21 12:15:20;;;;;;;9.83;7.73;;;;;;;;;;5044099;28;20743;-84
2024/03/21 12:17:46;;;;;;;11.60;8.13;;;;;;;;;;5070984;28;20448;-82
2024/03/21 12:20:12;;;;;;;10.53;8.40;;;;;;;;;;5055849;28;20469;-82
2024/03/21 12:22:38;;;;;;;9.43;8.20;;;;;;;;;;5049940;28;20420;-81
2024/03/21 12:25:05;;;;;;;7.70;6.53;;;;;;;;;;5054153;28;20420;-81
2024/03/21 12:27:31;;;;;;;8.40;7.30;;;;;;;;;;5048315;28;20406;-81
2024/03/21 12:29:57;;;;;;;10.13;7.00;;;;;;;;;;5063253;28;20432;-82
2024/03/21 12:32:24;;;;;;;8.93;7.93;;;;;;;;;;5064120;28;20481;-81
2024/03/21 12:34:50;;;;;;;8.47;7.50;;;;;;;;;;5049817;28;20425;-81
2024/03/21 12:37:16;;;;;;;9.33;8.30;;;;;;;;;;5041826;28;20479;-81
2024/03/21 12:39:42;;;;;;;8.60;7.40;;;;;;;;;;5068686;28;20462;-81
2024/03/21 12:42:12;;;;;;;10.37;7.63;;;;;;;;;;5046666;28;20403;-81
2024/03/21 12:44:38;;;;;;;11.37;9.17;;;;;;;;;;5047037;28;20780;-81
2024/03/21 12:47:04;;;;;;;9.30;8.00;;;;;;;;;;5049760;28;20883;-81
2024/03/21 12:49:30;;;;;;;8.63;7.40;;;;;;;;;;5046586;28;20431;-81
2024/03/21 12:51:56;;;;;;;8.87;7.93;;;;;;;;;;5050147;28;20448;-81
2024/03/21 12:54:22;;;;;;;8.97;8.00;;;;;;;;;;5051930;28;20420;-81
2024/03/21 12:56:48;;;;;;;11.80;9.20;;;;;;;;;;5052750;28;20403;-82
2024/03/21 12:59:14;;;;;;;10.67;8.53;;;;;;;;;;5066915;28;20415;-81
2024/03/21 13:01:40;;;;;;;9.50;7.90;;;;;;;;;;5052678;28;20907;-81
2024/03/21 13:04:06;;;;;;;9.07;7.60;;;;;;;;;;5048458;28;20391;-81
2024/03/21 13:06:32;;;;;;;9.83;7.93;;;;;;;;;;5043878;28;20436;-82
2024/03/21 13:08:58;;;;;;;11.30;9.23;;;;;;;;;;5069417;28;20424;-82
2024/03/21 13:11:29;;;;;;;12.03;9.07;;;;;;;;;;5064048;28;20439;-81
2024/03/21 13:13:55;;;;;;;12.43;8.97;;;;;;;;;;5052065;28;20772;-82
2024/03/21 13:16:21;;;;;;;10.70;9.07;;;;;;;;;;5068471;28;20445;-81
2024/03/21 13:18:47;;;;;;;8.80;7.90;;;;;;;;;;5044576;28;20444;-82
2024/03/21 13:21:13;;;;;;;10.53;8.30;;;;;;;;;;5066078;28;20464;-83
2024/03/21 13:23:39;;;;;;;11.80;9.60;;;;;;;;;;5065198;28;20406;-81
2024/03/21 13:26:05;;;;;;;9.97;8.43;;;;;;;;;;5067436;28;20419;-81
2024/03/21 13:28:31;;;;;;;11.60;8.80;;;;;;;;;;5051314;28;20896;-82
2024/03/21 13:30:57;;;;;;;12.43;9.47;;;;;;;;;;5046760;28;20435;-82
2024/03/21 13:33:23;;;;;;;12.67;9.80;;;;;;;;;;5047683;28;20427;-82
2024/03/21 13:35:49;;;;;;;14.00;10.30;;;;;;;;;;5061664;28;20403;-82
2024/03/21 13:38:16;;;;;;;10.40;9.30;;;;;;;;;;5063220;28;20420;-82
2024/03/21 13:40:45;;;;;;;12.07;8.20;;;;;;;;;;5050052;28;20524;-82
2024/03/21 13:43:11;;;;;;;12.63;9.87;;;;;;;;;;5060110;28;20494;-81
2024/03/21 13:45:41;;;;;;;10.70;8.97;;;;;;;;;;5049440;28;20416;-80
2024/03/21 13:48:08;;;;;;;10.93;8.93;;;;;;;;;;5044162;28;20823;-85
2024/03/21 13:50:34;;;;;;;14.00;9.40;;;;;;;;;;5061663;28;20587;-87
2024/03/21 13:53:00;;;;;;;16.93;9.20;;;;;;;;;;5052547;28;20399;-83
2024/03/21 13:55:26;;;;;;;12.63;9.90;;;;;;;;;;5066433;28;20408;-82
2024/03/21 13:57:52;;;;;;;9.90;7.30;;;;;;;;;;5049898;28;20507;-85
2024/03/21 14:00:19;;;;;;;8.77;7.27;;;;;;;;;;5044874;28;20470;-85
2024/03/21 14:02:47;;;;;;;8.67;7.77;;;;;;;;;;5046662;28;20439;-85
2024/03/21 14:05:13;;;;;;;11.23;8.73;;;;;;;;;;5050137;28;20386;-87
2024/03/21 14:07:44;;;;;;;8.60;7.23;;;;;;;;;;5045491;28;20404;-82
2024/03/21 14:10:10;;;;;;;10.20;8.20;;;;;;;;;;5043326;28;20432;-84
2024/03/21 14:12:36;;;;;;;9.87;8.27;;;;;;;;;;5046639;28;20434;-85
2024/03/21 14:15:02;;;;;;;11.80;9.03;;;;;;;;;;5045497;28;20775;-84
2024/03/21 14:17:32;;;;;;;10.03;8.87;;;;;;;;;;5044749;28;20824;-85
2024/03/21 14:19:58;;;;;;;9.40;8.00;;;;;;;;;;5044901;28;20465;-83
2024/03/21 14:22:24;;;;;;;8.20;7.40;;;;;;;;;;5064770;28;20934;-85
2024/03/21 14:24:50;;;;;;;12.27;8.00;;;;;;;;;;5047008;28;20408;-85